This is the latest recevied weather packets stored in our database for station/object K5BOU. If no packets are shown the sender has not sent any weather packets the latest 10 day(s).
| Time | Temp. | Humidity | Pressure | Rain* | Wind** | Luminosity | Snow |
|---|---|---|---|---|---|---|---|
| 1777770442 | 19.44° C | 77% | 1017.1 hPa | 0 mm | - | 0 W/m² | - |
| 1777770139 | 20° C | 76% | 1016.7 hPa | 0 mm | - | 0 W/m² | - |
| 1777769837 | 20.56° C | 73% | 1017 hPa | 0 mm | - | 4 W/m² | - |
| 1777769534 | 21.11° C | 69% | 1016.9 hPa | 0 mm | - | 5 W/m² | - |
| 1777769230 | 21.67° C | 66% | 1016.5 hPa | 0 mm | - | 10 W/m² | - |
| 1777768929 | 22.22° C | 60% | 1016.4 hPa | 0 mm | - | 12 W/m² | - |
| 1777768626 | 22.78° C | 61% | 1016.3 hPa | 0 mm | - | 15 W/m² | - |
| 1777768323 | 23.33° C | 59% | 1016.2 hPa | 0 mm | - | 21 W/m² | - |
| 1777768019 | 23.89° C | 56% | 1016.5 hPa | 0 mm | - | 26 W/m² | - |
| 1777767716 | 23.89° C | 55% | 1016.4 hPa | 0 mm | - | 31 W/m² | - |
| 1777767412 | 23.89° C | 55% | 1016.3 hPa | 0 mm | - | 35 W/m² | - |
| 1777767109 | 23.89° C | 53% | 1016.3 hPa | 0 mm | - | 39 W/m² | - |
| 1777766807 | 23.89° C | 54% | 1016.2 hPa | 0 mm | - | 46 W/m² | - |
| 1777766504 | 23.89° C | 54% | 1016.3 hPa | 0 mm | - | 67 W/m² | - |
| 1777766200 | 24.44° C | 54% | 1016.1 hPa | 0 mm | - | 77 W/m² | - |
| 1777765899 | 24.44° C | 53% | 1016.3 hPa | 0 mm | - | 95 W/m² | - |
| 1777765594 | 24.44° C | 53% | 1016.1 hPa | 0 mm | - | 111 W/m² | - |
| 1777765292 | 25° C | 53% | 1016 hPa | 0 mm | - | 120 W/m² | - |
| 1777764987 | 24.44° C | 52% | 1015.8 hPa | 0 mm | - | 147 W/m² | - |
| 1777764684 | 24.44° C | 53% | 1016 hPa | 0 mm | - | 157 W/m² | - |
| 1777764380 | 24.44° C | 53% | 1015.8 hPa | 0 mm | - | 148 W/m² | - |
| 1777764078 | 25° C | 52% | 1015.9 hPa | 0 mm | - | 91 W/m² | - |
| 1777763774 | 25° C | 50% | 1016 hPa | 0 mm | - | 166 W/m² | - |
| 1777763472 | 24.44° C | 50% | 1016 hPa | 0 mm | - | 219 W/m² | - |
| 1777763170 | 25° C | 52% | 1016 hPa | 0 mm | - | 228 W/m² | - |
* Rain latest hour (hover to see other rain measurements)
** Current wind speed in m/s (hover to see current wind gust speed)